Time;durP1;ratioP1;P1;durP2;ratioP2;P2;SDS_P1;SDS_P2;PMS_P1;PMS_P2;Temp;Humidity;BMP_temperature;BMP_pressure;BME280_temperature;BME280_humidity;BME280_pressure;Samples;Min_cycle;Max_cycle;Signal;HPM_P1;HPM_P2
2022/02/13 00:01:09;;;;;;;0.50;0.40;;;2.30;99.90;;;;;;5034511;28;20628;-80
2022/02/13 00:03:36;;;;;;;0.55;0.47;;;2.30;99.90;;;;;;5037468;28;20215;-79
2022/02/13 00:06:04;;;;;;;0.60;0.50;;;2.30;99.90;;;;;;5037422;28;20294;-78
2022/02/13 00:08:31;;;;;;;0.95;0.80;;;2.20;99.90;;;;;;5037688;28;20253;-77
2022/02/13 00:10:58;;;;;;;0.50;0.40;;;2.30;99.90;;;;;;5037399;28;20191;-79
2022/02/13 00:13:24;;;;;;;1.35;1.05;;;2.30;99.90;;;;;;5037473;28;20223;-79
2022/02/13 00:15:51;;;;;;;0.50;0.50;;;2.20;99.90;;;;;;5037378;28;20222;-78
2022/02/13 00:18:17;;;;;;;0.70;0.70;;;2.20;99.90;;;;;;5046040;28;20195;-80
2022/02/13 00:20:44;;;;;;;0.65;0.65;;;2.20;99.90;;;;;;5044102;28;20199;-80
2022/02/13 00:23:13;;;;;;;0.50;0.40;;;2.20;99.90;;;;;;5048778;28;20223;-80
2022/02/13 00:25:40;;;;;;;1.13;1.02;;;2.10;99.90;;;;;;5049589;28;20192;-79
2022/02/13 00:28:08;;;;;;;0.70;0.68;;;2.10;99.90;;;;;;5050254;28;20195;-79
2022/02/13 00:30:35;;;;;;;1.00;0.95;;;2.10;99.90;;;;;;5047321;28;20202;-79
2022/02/13 00:33:01;;;;;;;0.63;0.63;;;2.10;99.90;;;;;;5049255;28;20245;-78
2022/02/13 00:35:28;;;;;;;0.88;0.75;;;2.10;99.90;;;;;;5049264;28;20313;-80
2022/02/13 00:37:55;;;;;;;0.63;0.63;;;2.10;99.90;;;;;;5047887;28;20217;-79
2022/02/13 00:40:24;;;;;;;4.10;1.17;;;2.20;99.90;;;;;;5046153;28;20205;-80
2022/02/13 00:42:50;;;;;;;0.50;0.40;;;2.20;99.90;;;;;;5036563;28;20219;-78
2022/02/13 00:45:18;;;;;;;1.05;1.05;;;2.30;99.90;;;;;;5036416;28;20256;-80
2022/02/13 00:47:44;;;;;;;2.60;1.10;;;2.30;99.90;;;;;;5036520;28;20191;-80
2022/02/13 00:50:11;;;;;;;0.65;0.65;;;2.30;99.90;;;;;;5036095;28;20194;-80
2022/02/13 00:52:38;;;;;;;0.60;0.60;;;2.30;99.90;;;;;;5044676;28;20215;-79
2022/02/13 00:55:05;;;;;;;0.98;0.80;;;2.30;99.90;;;;;;5048881;28;20245;-80
2022/02/13 00:57:33;;;;;;;0.50;0.40;;;2.30;99.90;;;;;;5047830;28;20230;-80
2022/02/13 01:00:00;;;;;;;0.50;0.40;;;2.30;99.90;;;;;;5049535;28;20205;-80
2022/02/13 01:02:26;;;;;;;6.13;1.15;;;2.30;99.90;;;;;;5048727;28;20230;-80
2022/02/13 01:04:53;;;;;;;1.08;0.95;;;2.30;99.90;;;;;;5049235;28;20647;-78
2022/02/13 01:07:20;;;;;;;1.67;1.58;;;2.30;99.90;;;;;;5048897;28;20202;-79
2022/02/13 01:09:47;;;;;;;1.00;0.90;;;2.30;99.90;;;;;;5048106;28;20226;-80
2022/02/13 01:12:13;;;;;;;2.45;1.83;;;2.20;99.90;;;;;;5046514;28;20221;-81
2022/02/13 01:14:42;;;;;;;0.50;0.50;;;2.20;99.90;;;;;;5044072;28;20214;-80
2022/02/13 01:17:09;;;;;;;1.60;0.90;;;2.20;99.90;;;;;;5050673;28;20198;-80
2022/02/13 01:19:36;;;;;;;1.98;1.05;;;2.20;99.90;;;;;;5047232;28;20206;-80
2022/02/13 01:22:07;;;;;;;20.88;1.40;;;2.20;99.90;;;;;;5049698;28;20214;-78
2022/02/13 01:24:34;;;;;;;1.08;0.70;;;2.20;99.90;;;;;;5049163;28;20182;-80
2022/02/13 01:27:01;;;;;;;1.13;0.98;;;2.10;99.90;;;;;;5047490;28;20205;-80
2022/02/13 01:29:27;;;;;;;5.00;1.60;;;2.10;99.90;;;;;;5047132;28;20195;-77
2022/02/13 01:31:56;;;;;;;0.70;0.50;;;2.10;99.90;;;;;;5046526;28;20223;-80
2022/02/13 01:34:22;;;;;;;0.50;0.43;;;2.10;99.90;;;;;;5047571;28;20242;-79
2022/02/13 01:36:50;;;;;;;0.50;0.50;;;2.00;99.90;;;;;;5047828;28;20337;-80
2022/02/13 01:39:17;;;;;;;1.08;0.90;;;2.00;99.90;;;;;;5047799;28;20203;-80
2022/02/13 01:41:45;;;;;;;0.60;0.60;;;2.00;99.90;;;;;;5048134;28;20221;-81
2022/02/13 01:44:23;;;;;;;3.80;2.05;;;2.00;99.90;;;;;;5046938;28;20779;-79
2022/02/13 01:46:50;;;;;;;0.50;0.50;;;2.00;99.90;;;;;;5046407;28;20183;-81
2022/02/13 01:49:18;;;;;;;1.02;0.85;;;1.90;99.90;;;;;;5049821;28;20281;-80
2022/02/13 01:51:45;;;;;;;1.35;1.17;;;2.00;99.90;;;;;;5050341;28;20225;-80
2022/02/13 01:54:12;;;;;;;1.13;1.08;;;2.00;99.90;;;;;;5048399;28;20214;-80
2022/02/13 01:56:39;;;;;;;0.50;0.40;;;2.00;99.90;;;;;;5046779;28;20195;-80
2022/02/13 01:59:06;;;;;;;0.60;0.50;;;1.90;99.90;;;;;;5046462;28;20202;-79
2022/02/13 02:01:33;;;;;;;0.90;0.90;;;1.90;99.90;;;;;;5047816;28;20206;-80
2022/02/13 02:04:00;;;;;;;1.70;1.58;;;1.90;99.90;;;;;;5043884;28;20203;-79
2022/02/13 02:06:28;;;;;;;0.82;0.70;;;1.90;99.90;;;;;;5046949;28;20199;-80
2022/02/13 02:08:55;;;;;;;0.70;0.65;;;1.90;99.90;;;;;;5043218;28;20252;-80
2022/02/13 02:11:23;;;;;;;1.20;1.20;;;1.90;99.90;;;;;;5046756;28;20208;-80
2022/02/13 02:13:49;;;;;;;1.05;0.95;;;1.90;99.90;;;;;;5041464;28;20249;-80
2022/02/13 02:16:16;;;;;;;1.45;1.25;;;1.90;99.90;;;;;;5036401;28;20240;-79
2022/02/13 02:18:43;;;;;;;0.98;0.98;;;1.90;99.90;;;;;;5035047;28;20202;-80
2022/02/13 02:21:10;;;;;;;0.70;0.60;;;1.90;99.90;;;;;;5036086;28;20565;-80
2022/02/13 02:23:39;;;;;;;0.60;0.60;;;1.90;99.90;;;;;;5034256;28;20305;-79
2022/02/13 02:26:06;;;;;;;3.08;1.65;;;1.90;99.90;;;;;;5035394;28;20225;-78
2022/02/13 02:28:33;;;;;;;0.65;0.65;;;1.90;99.90;;;;;;5035073;28;20208;-79
2022/02/13 02:31:00;;;;;;;0.50;0.43;;;1.90;99.90;;;;;;5035483;28;20203;-79
2022/02/13 02:33:27;;;;;;;0.50;0.50;;;1.80;99.90;;;;;;5036176;28;20260;-79
2022/02/13 02:35:54;;;;;;;1.40;1.20;;;1.80;99.90;;;;;;5035283;28;20261;-80
2022/02/13 02:38:22;;;;;;;1.75;1.58;;;1.70;99.90;;;;;;5034854;28;20703;-80
2022/02/13 02:40:50;;;;;;;0.50;0.50;;;1.70;99.90;;;;;;5034738;28;20457;-78
2022/02/13 02:43:17;;;;;;;0.60;0.60;;;1.70;99.90;;;;;;5036015;28;20265;-79
2022/02/13 02:45:45;;;;;;;0.50;0.45;;;1.70;99.90;;;;;;5037815;28;20186;-80
2022/02/13 02:48:11;;;;;;;0.50;0.50;;;1.70;99.90;;;;;;5034277;28;20952;-80
2022/02/13 02:50:38;;;;;;;0.55;0.55;;;1.70;99.90;;;;;;5033778;28;20214;-79
2022/02/13 02:53:05;;;;;;;0.50;0.45;;;1.70;99.90;;;;;;5033949;28;20214;-80
2022/02/13 02:55:31;;;;;;;0.80;0.70;;;1.60;99.90;;;;;;5034222;28;20254;-79
2022/02/13 02:57:59;;;;;;;1.40;0.85;;;1.60;99.90;;;;;;5033902;28;20569;-80
2022/02/13 03:00:26;;;;;;;0.50;0.50;;;1.60;99.90;;;;;;5035600;28;20541;-79
2022/02/13 03:02:53;;;;;;;0.50;0.50;;;1.50;99.90;;;;;;5034030;28;20727;-80
2022/02/13 03:05:20;;;;;;;0.60;0.60;;;1.50;99.90;;;;;;5033947;28;20196;-80
2022/02/13 03:07:46;;;;;;;1.02;1.02;;;1.50;99.90;;;;;;5033566;28;20499;-78
2022/02/13 03:10:13;;;;;;;2.00;1.50;;;1.50;99.90;;;;;;5033052;28;20234;-80
2022/02/13 03:12:40;;;;;;;0.55;0.55;;;1.50;99.90;;;;;;5034668;28;20229;-80
2022/02/13 03:15:08;;;;;;;1.80;1.67;;;1.50;99.90;;;;;;5033626;28;20214;-79
2022/02/13 03:17:35;;;;;;;0.50;0.40;;;1.50;99.90;;;;;;5033638;28;20198;-80
2022/02/13 03:20:03;;;;;;;0.70;0.70;;;1.50;99.90;;;;;;5033771;28;20633;-79
2022/02/13 03:22:30;;;;;;;1.05;0.68;;;1.50;99.90;;;;;;5034131;28;20244;-80
2022/02/13 03:24:59;;;;;;;1.73;1.63;;;1.50;99.90;;;;;;5033392;28;20194;-79
2022/02/13 03:27:26;;;;;;;0.95;0.95;;;1.50;99.90;;;;;;5033621;28;20256;-77
2022/02/13 03:29:53;;;;;;;1.55;1.15;;;1.50;99.90;;;;;;5032839;28;20194;-80
2022/02/13 03:32:21;;;;;;;0.60;0.60;;;1.50;99.90;;;;;;5033370;28;20216;-79
2022/02/13 03:34:48;;;;;;;0.65;0.65;;;1.50;99.90;;;;;;5034298;28;20206;-80
2022/02/13 03:37:15;;;;;;;1.90;1.80;;;1.50;99.90;;;;;;5037386;28;20198;-78
2022/02/13 03:39:43;;;;;;;0.50;0.40;;;1.50;99.90;;;;;;5036916;28;20206;-80
2022/02/13 03:42:12;;;;;;;0.60;0.57;;;1.60;99.90;;;;;;5037411;28;20221;-79
2022/02/13 03:44:38;;;;;;;0.50;0.45;;;1.60;99.90;;;;;;5037664;28;20569;-78
2022/02/13 03:47:06;;;;;;;1.25;1.15;;;1.50;99.90;;;;;;5037279;28;20198;-79
2022/02/13 03:49:34;;;;;;;0.50;0.40;;;1.50;99.90;;;;;;5037032;28;20687;-79
2022/02/13 03:52:01;;;;;;;0.50;0.43;;;1.60;99.90;;;;;;5037263;28;20632;-79
2022/02/13 03:54:27;;;;;;;2.33;2.15;;;1.50;99.90;;;;;;5036942;28;20245;-79
2022/02/13 03:56:54;;;;;;;0.50;0.40;;;1.50;99.90;;;;;;5037907;28;20219;-79
2022/02/13 03:59:21;;;;;;;0.50;0.40;;;1.50;99.90;;;;;;5041263;28;20202;-80
2022/02/13 04:01:47;;;;;;;0.50;0.50;;;1.50;99.90;;;;;;5037437;28;20219;-79
2022/02/13 04:04:14;;;;;;;0.60;0.60;;;1.40;99.90;;;;;;5036770;28;20205;-79
2022/02/13 04:06:42;;;;;;;1.10;1.10;;;1.50;99.90;;;;;;5037196;28;20188;-80
2022/02/13 04:09:09;;;;;;;1.50;1.15;;;1.50;99.90;;;;;;5036992;28;20198;-79
2022/02/13 04:11:36;;;;;;;2.30;0.55;;;1.50;99.90;;;;;;5036703;28;20198;-80
2022/02/13 04:14:02;;;;;;;1.42;0.95;;;1.50;99.90;;;;;;5036724;28;20217;-79
2022/02/13 04:16:29;;;;;;;1.95;1.85;;;1.40;99.90;;;;;;5037680;28;20619;-79
2022/02/13 04:18:56;;;;;;;1.65;1.55;;;1.50;99.90;;;;;;5037099;28;20611;-79
2022/02/13 04:21:22;;;;;;;1.45;1.35;;;1.50;99.90;;;;;;5044782;28;20202;-78
2022/02/13 04:23:50;;;;;;;6.35;1.00;;;1.50;99.90;;;;;;5045249;28;20182;-79
2022/02/13 04:26:17;;;;;;;2.35;0.70;;;1.40;99.90;;;;;;5050242;28;20245;-80
2022/02/13 04:28:44;;;;;;;0.50;0.50;;;1.40;99.90;;;;;;5049301;28;20223;-79
2022/02/13 04:31:11;;;;;;;0.50;0.50;;;1.40;99.90;;;;;;5047204;28;20197;-79
2022/02/13 04:33:38;;;;;;;0.50;0.40;;;1.40;99.90;;;;;;5047267;28;20214;-79
2022/02/13 04:36:05;;;;;;;0.82;0.82;;;1.40;99.90;;;;;;5047986;28;20230;-79
2022/02/13 04:38:32;;;;;;;1.55;1.45;;;1.40;99.90;;;;;;5048940;28;20614;-79
2022/02/13 04:41:00;;;;;;;0.50;0.50;;;1.40;99.90;;;;;;5043632;28;20202;-78
2022/02/13 04:43:27;;;;;;;0.50;0.40;;;1.40;99.90;;;;;;5040920;28;20213;-78
2022/02/13 04:45:54;;;;;;;0.70;0.70;;;1.40;99.90;;;;;;5041370;28;20194;-79
2022/02/13 04:48:21;;;;;;;1.85;1.30;;;1.40;99.90;;;;;;5043920;28;20226;-79
2022/02/13 04:50:47;;;;;;;0.50;0.50;;;1.50;99.90;;;;;;5046687;28;20186;-79
2022/02/13 04:53:14;;;;;;;5.10;0.70;;;1.50;99.90;;;;;;5045472;28;20218;-79
2022/02/13 04:55:41;;;;;;;0.70;0.70;;;1.60;99.90;;;;;;5046817;28;20218;-78
2022/02/13 04:58:09;;;;;;;1.88;1.77;;;1.60;99.90;;;;;;5047839;28;20202;-79
2022/02/13 05:00:36;;;;;;;2.35;2.15;;;1.60;99.90;;;;;;5046872;28;20202;-78
2022/02/13 05:03:03;;;;;;;2.45;0.90;;;1.60;99.90;;;;;;5045980;28;20276;-79
2022/02/13 05:05:30;;;;;;;0.60;0.60;;;1.60;99.90;;;;;;5044946;28;20261;-79
2022/02/13 05:07:56;;;;;;;2.05;0.75;;;1.60;99.90;;;;;;5047723;28;20596;-79
2022/02/13 05:10:23;;;;;;;1.88;1.70;;;1.70;99.90;;;;;;5045982;28;20195;-78
2022/02/13 05:12:49;;;;;;;1.20;1.20;;;1.60;99.90;;;;;;5044795;28;20230;-80
2022/02/13 05:15:18;;;;;;;0.50;0.50;;;1.60;99.90;;;;;;5044576;28;20202;-79
2022/02/13 05:17:46;;;;;;;0.75;0.73;;;1.70;99.90;;;;;;5046721;28;20194;-78
2022/02/13 05:20:13;;;;;;;0.60;0.50;;;1.70;99.90;;;;;;5045552;28;20228;-77
2022/02/13 05:22:39;;;;;;;0.50;0.40;;;1.60;99.90;;;;;;5043892;28;20250;-78
2022/02/13 05:25:07;;;;;;;1.20;1.15;;;1.60;99.90;;;;;;5043272;28;20202;-79
2022/02/13 05:27:33;;;;;;;0.70;0.70;;;1.60;99.90;;;;;;5040938;28;20224;-78
2022/02/13 05:30:00;;;;;;;2.80;1.60;;;1.70;99.90;;;;;;5043314;28;20208;-79
2022/02/13 05:32:30;;;;;;;0.70;0.70;;;1.70;99.90;;;;;;5045274;28;20218;-79
2022/02/13 05:34:57;;;;;;;0.68;0.68;;;1.60;99.90;;;;;;5042981;28;20199;-79
2022/02/13 05:37:23;;;;;;;0.50;0.50;;;1.60;99.90;;;;;;5040690;28;20226;-79
2022/02/13 05:39:50;;;;;;;0.50;0.50;;;1.60;99.90;;;;;;5037674;28;20202;-78
2022/02/13 05:42:17;;;;;;;0.70;0.70;;;1.60;99.90;;;;;;5036676;28;20218;-77
2022/02/13 05:44:43;;;;;;;1.45;1.35;;;1.60;99.90;;;;;;5036025;28;20207;-79
2022/02/13 05:47:11;;;;;;;2.05;1.85;;;1.60;99.90;;;;;;5035910;28;20198;-78
2022/02/13 05:49:39;;;;;;;0.50;0.40;;;1.60;99.90;;;;;;5035244;28;20723;-78
2022/02/13 05:52:06;;;;;;;0.80;0.80;;;1.60;99.90;;;;;;5035415;28;20262;-78
2022/02/13 05:54:33;;;;;;;1.95;1.25;;;1.60;99.90;;;;;;5035270;28;20203;-78
2022/02/13 05:57:00;;;;;;;0.50;0.50;;;1.60;99.90;;;;;;5035981;28;20219;-78
2022/02/13 05:59:26;;;;;;;1.40;1.33;;;1.60;99.90;;;;;;5035249;28;20194;-78
2022/02/13 06:01:53;;;;;;;0.60;0.60;;;1.60;99.90;;;;;;5038784;28;20222;-78
2022/02/13 06:04:21;;;;;;;0.60;0.60;;;1.60;99.90;;;;;;5037357;28;20198;-78
2022/02/13 06:06:49;;;;;;;1.63;1.52;;;1.60;99.90;;;;;;5038789;28;20205;-78
2022/02/13 06:09:16;;;;;;;0.60;0.60;;;1.60;99.90;;;;;;5043769;28;20220;-77
2022/02/13 06:11:44;;;;;;;1.10;1.10;;;1.60;99.90;;;;;;5044446;28;20272;-78
2022/02/13 06:14:10;;;;;;;1.02;1.02;;;1.60;99.90;;;;;;5046737;28;20202;-77
2022/02/13 06:16:37;;;;;;;2.83;1.27;;;1.60;99.90;;;;;;5048620;28;20214;-79
2022/02/13 06:19:04;;;;;;;0.80;0.80;;;1.60;99.90;;;;;;5053092;28;20198;-78
2022/02/13 06:21:31;;;;;;;0.70;0.60;;;1.60;99.90;;;;;;5052799;28;20234;-78
2022/02/13 06:23:59;;;;;;;3.20;1.85;;;1.60;99.90;;;;;;5053093;28;20203;-78
2022/02/13 06:26:26;;;;;;;0.50;0.40;;;1.60;99.90;;;;;;5053265;28;20194;-78
2022/02/13 06:28:55;;;;;;;8.43;1.85;;;1.60;99.90;;;;;;5053145;28;20231;-80
2022/02/13 06:31:21;;;;;;;1.35;1.25;;;1.60;99.90;;;;;;5051900;28;20193;-78
2022/02/13 06:33:48;;;;;;;0.70;0.70;;;1.60;99.90;;;;;;5052532;28;20222;-79
2022/02/13 06:36:15;;;;;;;0.70;0.60;;;1.60;99.90;;;;;;5052001;28;20219;-78
2022/02/13 06:38:42;;;;;;;0.50;0.50;;;1.60;99.90;;;;;;5052514;28;20228;-78
2022/02/13 06:41:10;;;;;;;0.60;0.60;;;1.60;99.90;;;;;;5051049;28;20212;-78
2022/02/13 06:43:37;;;;;;;1.73;1.25;;;1.60;99.90;;;;;;5048368;28;20249;-79
2022/02/13 06:46:03;;;;;;;2.60;2.40;;;1.60;99.90;;;;;;5050180;28;20205;-79
2022/02/13 06:48:31;;;;;;;0.50;0.45;;;1.60;99.90;;;;;;5051368;28;20215;-78
2022/02/13 06:50:58;;;;;;;1.85;1.63;;;1.60;99.90;;;;;;5044032;28;20227;-81
2022/02/13 06:53:25;;;;;;;0.60;0.60;;;1.60;99.90;;;;;;5036378;28;20722;-81
2022/02/13 06:55:52;;;;;;;1.25;1.02;;;1.60;99.90;;;;;;5034042;28;20248;-79
2022/02/13 06:58:21;;;;;;;0.50;0.40;;;1.60;99.90;;;;;;5032577;28;20197;-78
2022/02/13 07:00:47;;;;;;;0.70;0.70;;;1.60;99.90;;;;;;5032047;28;20205;-78
2022/02/13 07:03:14;;;;;;;0.60;0.50;;;1.60;99.90;;;;;;5032368;28;20554;-78
2022/02/13 07:05:41;;;;;;;0.93;0.50;;;1.70;99.90;;;;;;5031491;28;20227;-78
2022/02/13 07:08:08;;;;;;;0.50;0.50;;;1.70;99.90;;;;;;5032016;28;20202;-78
2022/02/13 07:10:34;;;;;;;0.65;0.65;;;1.70;99.90;;;;;;5033513;28;20252;-77
2022/02/13 07:13:01;;;;;;;0.50;0.40;;;1.80;99.90;;;;;;5035924;28;20232;-78
2022/02/13 07:15:30;;;;;;;0.50;0.47;;;1.80;99.90;;;;;;5036647;28;20264;-78
2022/02/13 07:17:57;;;;;;;0.50;0.43;;;1.90;99.90;;;;;;5035949;28;20217;-78
2022/02/13 07:20:24;;;;;;;0.75;0.75;;;1.90;99.90;;;;;;5035899;28;20264;-80
2022/02/13 07:22:50;;;;;;;0.75;0.75;;;2.00;99.90;;;;;;5037405;28;20602;-79
2022/02/13 07:25:17;;;;;;;0.50;0.50;;;2.00;99.90;;;;;;5036786;28;20256;-77
2022/02/13 07:27:44;;;;;;;2.55;2.35;;;2.10;99.90;;;;;;5036999;28;20282;-77
2022/02/13 07:30:13;;;;;;;0.50;0.40;;;2.20;99.90;;;;;;5037775;28;20202;-78
2022/02/13 07:32:43;;;;;;;1.00;0.90;;;2.30;99.90;;;;;;5035510;28;20215;-79
2022/02/13 07:35:10;;;;;;;3.05;1.35;;;2.40;99.90;;;;;;5035864;28;20681;-77
2022/02/13 07:37:37;;;;;;;0.80;0.80;;;2.70;99.90;;;;;;5035789;28;20213;-78
2022/02/13 07:40:04;;;;;;;1.70;1.30;;;3.00;99.90;;;;;;5035979;28;20214;-78
2022/02/13 07:42:31;;;;;;;5.65;1.73;;;3.10;99.90;;;;;;5035352;28;20292;-78
2022/02/13 07:44:57;;;;;;;0.65;0.65;;;3.60;99.90;;;;;;5035826;28;20619;-78
2022/02/13 07:47:25;;;;;;;0.50;0.50;;;4.30;99.90;;;;;;5035838;28;20600;-78
2022/02/13 07:49:53;;;;;;;0.65;0.65;;;5.10;99.90;;;;;;5035410;28;20203;-78
2022/02/13 07:52:20;;;;;;;0.70;0.70;;;5.50;99.90;;;;;;5035021;28;20215;-75
2022/02/13 07:54:46;;;;;;;0.50;0.50;;;5.50;99.90;;;;;;5035792;28;20195;-78
2022/02/13 07:57:13;;;;;;;2.00;1.80;;;5.70;99.90;;;;;;5035453;28;20215;-76
2022/02/13 07:59:44;;;;;;;0.60;0.60;;;5.90;99.90;;;;;;5035181;28;20195;-77
2022/02/13 08:02:11;;;;;;;1.23;0.73;;;6.40;99.90;;;;;;5035868;28;20211;-79
2022/02/13 08:04:41;;;;;;;3.33;3.13;;;7.10;99.90;;;;;;5034916;28;20223;-79
2022/02/13 08:07:09;;;;;;;4.97;4.72;;;7.20;99.90;;;;;;5035915;28;20565;-78
2022/02/13 08:09:36;;;;;;;1.15;1.05;;;7.40;99.90;;;;;;5035136;28;20223;-79
2022/02/13 08:12:03;;;;;;;0.50;0.50;;;7.80;99.90;;;;;;5034513;28;20226;-78
2022/02/13 08:14:29;;;;;;;0.70;0.70;;;8.00;99.90;;;;;;5034562;28;20191;-78
2022/02/13 08:16:56;;;;;;;1.38;0.80;;;8.10;99.90;;;;;;5035311;28;20855;-79
2022/02/13 08:19:23;;;;;;;1.23;1.17;;;8.50;99.40;;;;;;5034811;28;20666;-79
2022/02/13 08:21:49;;;;;;;0.50;0.50;;;8.90;96.80;;;;;;5034123;28;20220;-78
2022/02/13 08:24:17;;;;;;;0.50;0.40;;;8.30;96.40;;;;;;5035349;28;20203;-78
2022/02/13 08:26:44;;;;;;;0.50;0.40;;;8.50;97.20;;;;;;5035201;28;20209;-79
2022/02/13 08:29:11;;;;;;;0.50;0.40;;;9.10;96.90;;;;;;5034358;28;20201;-78
2022/02/13 08:31:37;;;;;;;0.77;0.77;;;9.50;94.20;;;;;;5034238;28;20193;-77
2022/02/13 08:34:04;;;;;;;1.48;1.38;;;9.20;93.40;;;;;;5034581;28;20193;-76
2022/02/13 08:36:31;;;;;;;2.05;1.23;;;9.20;93.20;;;;;;5034100;28;20217;-78
2022/02/13 08:38:57;;;;;;;1.33;1.23;;;9.00;92.70;;;;;;5034325;28;20268;-75
2022/02/13 08:41:25;;;;;;;0.60;0.60;;;9.30;93.30;;;;;;5034338;28;20205;-77
2022/02/13 08:43:52;;;;;;;0.50;0.40;;;9.60;91.80;;;;;;5034527;28;20202;-77
2022/02/13 08:46:19;;;;;;;0.80;0.80;;;9.60;91.60;;;;;;5034149;28;20194;-77
2022/02/13 08:48:45;;;;;;;0.50;0.40;;;9.40;91.20;;;;;;5035538;28;20607;-79
2022/02/13 08:51:12;;;;;;;0.82;0.82;;;8.90;92.20;;;;;;5035291;28;20198;-80
2022/02/13 08:53:39;;;;;;;0.50;0.40;;;8.70;92.20;;;;;;5035941;28;20580;-76
2022/02/13 08:56:05;;;;;;;1.00;1.00;;;8.80;93.00;;;;;;5034950;28;20194;-79
2022/02/13 08:58:34;;;;;;;0.63;0.45;;;9.40;91.50;;;;;;5034644;28;20228;-79
2022/02/13 09:01:01;;;;;;;1.02;1.02;;;9.60;90.60;;;;;;5034960;28;20203;-79
2022/02/13 09:03:28;;;;;;;0.60;0.60;;;10.10;87.60;;;;;;5033980;28;20211;-78
2022/02/13 09:05:55;;;;;;;4.80;1.58;;;10.90;86.50;;;;;;5034414;28;20202;-78
2022/02/13 09:08:22;;;;;;;0.50;0.40;;;11.00;81.90;;;;;;5034058;28;20202;-77
2022/02/13 09:10:48;;;;;;;0.98;0.88;;;11.30;80.60;;;;;;5033781;28;20672;-78
2022/02/13 09:13:15;;;;;;;0.50;0.40;;;11.40;78.70;;;;;;5056260;22;20228;-78
2022/02/13 09:15:43;;;;;;;2.97;1.33;;;11.10;78.80;;;;;;5041514;28;20191;-76
2022/02/13 09:18:13;;;;;;;1.13;1.02;;;11.80;76.20;;;;;;5033658;28;20578;-77
2022/02/13 09:20:44;;;;;;;2.55;2.45;;;11.90;74.20;;;;;;5032780;28;20669;-76
2022/02/13 09:23:13;;;;;;;0.82;0.82;;;11.50;74.90;;;;;;5032934;28;20704;-77
2022/02/13 09:25:40;;;;;;;0.60;0.60;;;11.40;74.80;;;;;;5033190;28;20282;-75
2022/02/13 09:28:07;;;;;;;1.52;1.40;;;11.20;74.60;;;;;;5033463;28;20191;-77
2022/02/13 09:30:33;;;;;;;0.50;0.40;;;11.60;73.90;;;;;;5032747;28;20679;-76
2022/02/13 09:33:01;;;;;;;0.50;0.45;;;11.70;72.40;;;;;;5032946;28;20199;-77
2022/02/13 09:35:28;;;;;;;0.80;0.77;;;11.20;71.60;;;;;;5032953;28;20195;-78
2022/02/13 09:37:56;;;;;;;0.85;0.80;;;10.50;72.70;;;;;;5032566;28;20215;-76
2022/02/13 09:40:23;;;;;;;3.40;2.97;;;10.60;73.60;;;;;;5032532;28;20203;-77
2022/02/13 09:42:50;;;;;;;1.13;1.02;;;10.70;73.90;;;;;;5032871;28;20665;-76
2022/02/13 09:45:16;;;;;;;0.95;0.95;;;10.60;73.50;;;;;;5032671;28;20219;-76
2022/02/13 09:47:43;;;;;;;1.23;1.15;;;10.60;73.50;;;;;;5032561;28;20195;-77
2022/02/13 09:50:11;;;;;;;1.58;1.33;;;10.20;74.30;;;;;;5032520;28;20265;-76
2022/02/13 09:52:38;;;;;;;1.17;1.08;;;9.80;75.70;;;;;;5032871;28;20202;-75
2022/02/13 09:55:06;;;;;;;0.75;0.75;;;9.80;77.00;;;;;;5032894;28;20222;-72
2022/02/13 10:00:17;;;;;;;1.65;1.38;;;9.40;78.10;;;;;;5032417;28;20193;-77
2022/02/13 10:02:45;;;;;;;1.02;0.98;;;9.30;78.80;;;;;;5032691;28;20202;-77
2022/02/13 10:05:20;;;;;;;0.85;0.80;;;9.00;79.70;;;;;;5031654;28;20218;-75
2022/02/13 10:07:51;;;;;;;1.42;0.77;;;8.60;81.60;;;;;;5032173;28;20198;-76
2022/02/13 10:10:18;;;;;;;2.45;1.50;;;8.70;82.90;;;;;;5032475;28;20245;-75
2022/02/13 10:12:48;;;;;;;1.55;0.98;;;8.50;82.70;;;;;;5032341;28;20259;-77
2022/02/13 10:15:27;;;;;;;0.65;0.63;;;8.70;83.80;;;;;;5031856;28;20238;-76
2022/02/13 10:17:58;;;;;;;0.77;0.77;;;8.80;83.70;;;;;;5032085;28;20227;-74
2022/02/13 10:20:31;;;;;;;1.45;1.23;;;8.60;84.00;;;;;;5032237;28;20289;-76
2022/02/13 10:23:04;;;;;;;0.50;0.40;;;8.60;84.60;;;;;;5032050;28;20198;-77
2022/02/13 10:25:31;;;;;;;0.50;0.40;;;8.90;86.20;;;;;;5032387;28;20186;-77
2022/02/13 10:27:58;;;;;;;0.50;0.50;;;9.40;84.90;;;;;;5031555;28;20194;-77
2022/02/13 10:30:35;;;;;;;0.50;0.50;;;9.80;83.20;;;;;;5031868;28;20660;-77
2022/02/13 10:33:19;;;;;;;1.23;1.15;;;10.00;80.60;;;;;;5031924;28;20199;-75
2022/02/13 10:36:11;;;;;;;0.60;0.55;;;10.00;79.30;;;;;;5027511;28;20202;-77
2022/02/13 10:38:39;;;;;;;0.88;0.88;;;9.80;81.10;;;;;;5031667;28;20199;-78
2022/02/13 10:41:28;;;;;;;0.80;0.80;;;9.80;81.50;;;;;;5031408;28;20198;-77
2022/02/13 10:43:57;;;;;;;0.70;0.65;;;9.40;81.40;;;;;;5024548;28;20782;-75
2022/02/13 10:46:26;;;;;;;0.50;0.40;;;9.30;83.20;;;;;;5031529;28;20205;-78
2022/02/13 10:48:53;;;;;;;0.50;0.50;;;9.30;82.70;;;;;;5031958;28;20664;-79
2022/02/13 10:51:23;;;;;;;3.08;1.63;;;9.50;82.20;;;;;;5031819;28;20651;-77
2022/02/13 10:53:50;;;;;;;0.52;0.45;;;9.30;81.40;;;;;;5031892;28;20598;-80
2022/02/13 10:56:17;;;;;;;1.05;0.95;;;9.30;81.90;;;;;;5031965;28;20195;-77
2022/02/13 10:58:43;;;;;;;1.08;1.08;;;9.60;82.30;;;;;;5031503;28;20222;-77
2022/02/13 11:01:12;;;;;;;1.05;0.93;;;9.70;80.70;;;;;;5031657;28;20229;-78
2022/02/13 11:03:39;;;;;;;1.65;1.05;;;10.10;79.40;;;;;;5031777;28;20211;-78
2022/02/13 11:06:07;;;;;;;0.60;0.60;;;10.30;78.00;;;;;;5031025;28;20206;-77
2022/02/13 11:08:40;;;;;;;0.50;0.40;;;10.40;77.90;;;;;;5030897;28;20230;-78
2022/02/13 11:11:07;;;;;;;0.70;0.70;;;10.70;78.80;;;;;;5031271;28;20202;-78
2022/02/13 11:13:35;;;;;;;0.70;0.55;;;11.00;76.20;;;;;;5031170;28;20235;-78
2022/02/13 11:16:01;;;;;;;0.65;0.65;;;11.00;75.40;;;;;;5032074;28;20195;-77
2022/02/13 11:18:31;;;;;;;0.90;0.80;;;10.90;75.80;;;;;;5031090;28;20223;-77
2022/02/13 11:20:59;;;;;;;2.17;1.10;;;11.10;75.70;;;;;;5031128;28;20612;-77
2022/02/13 11:23:27;;;;;;;1.02;0.90;;;11.20;73.40;;;;;;5031207;28;20215;-77
2022/02/13 11:25:57;;;;;;;0.50;0.40;;;10.90;73.40;;;;;;5031431;28;20630;-77
2022/02/13 11:28:27;;;;;;;1.40;1.27;;;10.80;74.20;;;;;;5031636;28;20278;-77
2022/02/13 11:30:55;;;;;;;1.02;0.88;;;11.00;73.80;;;;;;5031243;28;20289;-77
2022/02/13 11:33:46;;;;;;;1.30;0.90;;;10.80;74.00;;;;;;5030925;28;20278;-77
2022/02/13 11:36:14;;;;;;;0.70;0.65;;;10.70;73.40;;;;;;5006931;28;20206;-77
2022/02/13 11:38:57;;;;;;;1.02;0.98;;;10.60;75.70;;;;;;5031339;28;20325;-77
2022/02/13 11:42:07;;;;;;;1.25;1.15;;;10.90;74.90;;;;;;5031405;28;20199;-78
2022/02/13 11:44:40;;;;;;;0.60;0.60;;;11.20;74.40;;;;;;5030610;28;20215;-77
2022/02/13 11:47:09;;;;;;;0.60;0.60;;;11.20;74.40;;;;;;5031512;28;20195;-78
2022/02/13 11:50:19;;;;;;;1.35;1.25;;;11.10;73.80;;;;;;5031116;28;20210;-77
2022/02/13 11:53:00;;;;;;;0.70;0.63;;;10.90;75.90;;;;;;5031240;28;20344;-78
2022/02/13 11:55:28;;;;;;;1.67;1.10;;;10.70;75.60;;;;;;5031070;28;20212;-78
2022/02/13 11:57:57;;;;;;;6.00;2.55;;;10.70;75.20;;;;;;5035198;28;20473;-78
2022/02/13 12:00:40;;;;;;;0.90;0.90;;;10.30;76.00;;;;;;5033925;28;20603;-77
2022/02/13 12:03:15;;;;;;;1.15;0.85;;;10.40;76.90;;;;;;5034947;28;20219;-78
2022/02/13 12:05:42;;;;;;;1.13;0.60;;;10.50;76.90;;;;;;5033954;28;20667;-78
2022/02/13 12:08:08;;;;;;;1.10;0.82;;;10.60;78.60;;;;;;5034730;28;20195;-78
2022/02/13 12:10:41;;;;;;;6.57;1.40;;;10.50;77.00;;;;;;5034057;28;20192;-76
2022/02/13 12:13:10;;;;;;;0.60;0.60;;;10.40;77.60;;;;;;5034834;28;20214;-77
2022/02/13 12:15:40;;;;;;;0.60;0.50;;;10.30;77.80;;;;;;5034161;28;20195;-77
2022/02/13 12:18:09;;;;;;;0.60;0.50;;;10.60;78.40;;;;;;5034637;28;20281;-79
2022/02/13 12:20:36;;;;;;;0.50;0.40;;;11.00;77.20;;;;;;5034146;28;20203;-78
2022/02/13 12:23:05;;;;;;;4.90;0.82;;;10.90;77.30;;;;;;5034218;28;20573;-75
2022/02/13 12:25:33;;;;;;;1.17;0.90;;;10.90;77.60;;;;;;5034125;28;20199;-77
2022/02/13 12:27:59;;;;;;;0.50;0.50;;;10.70;77.80;;;;;;5034385;28;20195;-79
2022/02/13 12:30:26;;;;;;;0.85;0.80;;;10.70;77.90;;;;;;5033884;28;20204;-78
2022/02/13 12:32:58;;;;;;;0.60;0.50;;;10.60;77.90;;;;;;5034630;28;20665;-77
2022/02/13 12:35:30;;;;;;;0.57;0.57;;;10.70;79.10;;;;;;5034001;28;20619;-77
2022/02/13 12:37:57;;;;;;;1.85;1.30;;;10.80;78.50;;;;;;5034228;28;20217;-78
2022/02/13 12:40:28;;;;;;;0.85;0.85;;;10.80;77.80;;;;;;5033909;28;20195;-78
2022/02/13 12:42:56;;;;;;;0.50;0.50;;;10.80;78.80;;;;;;5034091;28;20206;-77
2022/02/13 12:45:26;;;;;;;0.70;0.70;;;10.80;78.10;;;;;;5034142;28;20215;-78
2022/02/13 12:47:55;;;;;;;0.60;0.60;;;10.90;78.40;;;;;;5034039;28;20738;-78
2022/02/13 12:50:25;;;;;;;1.50;1.02;;;11.00;79.00;;;;;;5033766;28;20194;-77
2022/02/13 12:52:52;;;;;;;0.80;0.80;;;10.60;78.90;;;;;;5034310;28;20199;-78
2022/02/13 12:55:20;;;;;;;0.50;0.40;;;10.60;80.20;;;;;;5033919;28;20222;-78
2022/02/13 12:57:51;;;;;;;0.85;0.85;;;10.80;80.10;;;;;;5033613;28;20200;-75
2022/02/13 13:00:22;;;;;;;2.83;2.13;;;10.80;80.50;;;;;;5033345;28;20199;-78
2022/02/13 13:02:57;;;;;;;0.60;0.60;;;10.80;79.90;;;;;;5033329;28;20441;-77